Time,TemperatureF,DewpointF,PressureIn,WindDirection,WindDirectionDegrees,WindSpeedMPH,WindSpeedGustMPH,Humidity,HourlyPrecipIn,Conditions,Clouds,dailyrainin,SoftwareType,DateUTC
2013-03-20 00:27:00,55.6,52.1,29.83,NE,45,0.0,0.0,88,0.00,,FEW,0.00,WUHU21623XXSP,2013-03-19 22:27:00,
2013-03-20 01:27:00,54.3,51.4,29.83,South,180,0.0,0.0,90,0.00,,FEW,0.00,WUHU21623XXSP,2013-03-19 23:27:00,
2013-03-20 02:27:00,53.8,51.5,29.84,NNE,23,0.0,0.0,92,0.00,,FEW,0.00,WUHU21623XXSP,2013-03-20 00:27:00,
2013-03-20 03:27:00,52.5,50.8,29.84,NNE,23,0.0,0.0,94,0.00,,FEW,0.00,WUHU21623XXSP,2013-03-20 01:27:00,
2013-03-20 04:27:00,52.0,50.3,29.84,NE,45,0.0,0.0,94,0.00,,FEW,0.00,WUHU21623XXSP,2013-03-20 02:27:00,
2013-03-20 05:27:00,51.3,49.6,29.85,NNE,23,0.0,0.0,94,0.00,,FEW,0.00,WUHU21623XXSP,2013-03-20 03:27:00,
2013-03-20 06:27:00,50.7,49.0,29.86,North,0,0.8,0.8,94,0.00,,FEW,0.00,WUHU21623XXSP,2013-03-20 04:27:00,
2013-03-20 07:27:00,51.6,49.0,29.88,NNE,23,1.8,1.8,91,0.00,,FEW,0.00,WUHU21623XXSP,2013-03-20 05:27:00,
2013-03-20 07:44:00,52.9,48.8,29.89,North,0,0.0,0.0,86,0.00,,FEW,0.00,WUHU21623XXSP,2013-03-20 05:44:00,
2013-03-20 07:49:00,53.2,48.8,29.89,ENE,67,0.0,4.0,85,0.00,,FEW,0.00,WUHU21623XXSP,2013-03-20 05:49:00,
2013-03-20 07:54:00,53.6,48.9,29.90,NNE,22,0.0,4.0,84,0.00,,FEW,0.00,WUHU21623XXSP,2013-03-20 05:54:00,
2013-03-20 07:59:00,54.0,49.0,29.90,NNE,22,4.7,4.7,83,0.00,,FEW,0.00,WUHU21623XXSP,2013-03-20 05:59:00,
2013-03-20 08:04:00,54.3,48.6,29.90,NNE,22,2.4,4.7,81,0.00,,FEW,0.00,WUHU21623XXSP,2013-03-20 06:04:00,
2013-03-20 08:09:00,54.5,48.2,29.90,ENE,67,0.0,4.7,79,0.00,,FEW,0.00,WUHU21623XXSP,2013-03-20 06:09:00,
2013-03-20 08:14:00,54.9,48.2,29.90,North,0,1.4,4.2,78,0.00,,FEW,0.00,WUHU21623XXSP,2013-03-20 06:14:00,
2013-03-20 08:19:00,55.4,48.4,29.90,NNE,22,0.0,5.2,77,0.00,,FEW,0.00,WUHU21623XXSP,2013-03-20 06:19:00,
2013-03-20 08:27:00,56.1,48.7,29.90,NE,45,0.0,3.4,76,0.00,,FEW,0.00,WUHU21623XXSP,2013-03-20 06:27:00,
2013-03-20 09:27:00,62.2,49.6,29.89,NE,45,0.0,0.0,63,0.00,,FEW,0.00,WUHU21623XXSP,2013-03-20 07:27:00,
2013-03-20 10:27:00,64.6,46.6,29.90,SSW,203,0.0,0.0,52,0.00,,FEW,0.00,WUHU21623XXSP,2013-03-20 08:27:00,
2013-03-20 11:27:00,66.6,48.0,29.91,WSW,248,2.0,2.0,51,0.00,,FEW,0.00,WUHU21623XXSP,2013-03-20 09:27:00,
2013-03-20 12:27:00,65.8,47.8,29.91,South,180,0.0,0.0,52,0.00,,FEW,0.00,WUHU21623XXSP,2013-03-20 10:27:00,
2013-03-20 13:18:00,67.6,49.4,29.89,SSE,157,0.0,0.0,52,0.00,,FEW,0.00,WUHU21623XXSP,2013-03-20 11:18:00,
2013-03-20 13:23:00,68.2,49.4,29.89,South,180,4.2,5.6,51,0.00,,BKN,0.00,WUHU21623XXSP,2013-03-20 11:23:00,
2013-03-20 13:28:00,68.2,50.0,29.89,SW,225,1.8,5.6,52,0.00,,BKN,0.00,WUHU21623XXSP,2013-03-20 11:28:00,
2013-03-20 13:33:00,68.0,49.8,29.89,SSW,202,2.2,9.4,52,0.00,,BKN,0.00,WUHU21623XXSP,2013-03-20 11:33:00,
2013-03-20 13:38:00,67.8,50.1,29.89,WSW,247,0.0,9.4,53,0.00,,BKN,0.00,WUHU21623XXSP,2013-03-20 11:38:00,
2013-03-20 13:43:00,68.2,51.0,29.88,SSW,202,2.8,5.9,54,0.00,,BKN,0.00,WUHU21623XXSP,2013-03-20 11:43:00,
2013-03-20 13:48:00,68.0,51.3,29.88,NNW,337,0.0,9.1,55,0.00,,BKN,0.00,WUHU21623XXSP,2013-03-20 11:48:00,
2013-03-20 13:53:00,67.1,51.0,29.88,SW,225,9.8,11.6,56,0.00,,BKN,0.00,WUHU21623XXSP,2013-03-20 11:53:00,
2013-03-20 13:58:00,66.6,52.0,29.88,SW,225,4.2,11.6,59,0.00,,BKN,0.00,WUHU21623XXSP,2013-03-20 11:58:00,
2013-03-20 14:03:00,66.4,52.3,29.88,WSW,247,1.8,11.6,60,0.00,,BKN,0.00,WUHU21623XXSP,2013-03-20 12:03:00,
2013-03-20 14:08:00,66.6,53.3,29.87,NNE,22,1.4,11.6,62,0.00,,BKN,0.00,WUHU21623XXSP,2013-03-20 12:08:00,
2013-03-20 14:13:00,66.2,53.0,29.88,SSW,202,0.0,8.9,62,0.00,,BKN,0.00,WUHU21623XXSP,2013-03-20 12:13:00,
2013-03-20 14:18:00,66.4,54.0,29.88,NW,315,2.8,9.6,64,0.00,,BKN,0.00,WUHU21623XXSP,2013-03-20 12:18:00,
2013-03-20 14:23:00,65.8,53.5,29.88,NNW,337,0.0,9.6,64,0.00,,BKN,0.00,WUHU21623XXSP,2013-03-20 12:23:00,
2013-03-20 14:28:00,66.0,54.1,29.87,West,270,2.8,8.6,65,0.00,,BKN,0.00,WUHU21623XXSP,2013-03-20 12:28:00,
2013-03-20 14:33:00,66.7,54.7,29.87,West,270,0.0,9.1,65,0.00,,BKN,0.00,WUHU21623XXSP,2013-03-20 12:33:00,
2013-03-20 14:38:00,66.7,54.3,29.87,North,0,0.0,11.1,64,0.00,,BKN,0.00,WUHU21623XXSP,2013-03-20 12:38:00,
2013-03-20 14:43:00,67.1,53.8,29.87,NW,315,0.0,11.1,62,0.00,,BKN,0.00,WUHU21623XXSP,2013-03-20 12:43:00,
2013-03-20 14:48:00,67.5,53.7,29.87,SW,225,6.9,11.3,61,0.00,,BKN,0.00,WUHU21623XXSP,2013-03-20 12:48:00,
2013-03-20 14:53:00,68.2,54.0,29.87,West,270,3.7,11.3,60,0.00,,BKN,0.00,WUHU21623XXSP,2013-03-20 12:53:00,
2013-03-20 14:58:00,67.8,52.6,29.87,WSW,247,0.0,10.8,58,0.00,,BKN,0.00,WUHU21623XXSP,2013-03-20 12:58:00,
2013-03-20 15:03:00,67.5,51.9,29.86,WSW,247,5.2,11.1,57,0.00,,BKN,0.00,WUHU21623XXSP,2013-03-20 13:03:00,
2013-03-20 15:08:00,66.7,52.1,29.86,SW,225,0.0,11.1,59,0.00,,BKN,0.00,WUHU21623XXSP,2013-03-20 13:08:00,
2013-03-20 15:13:00,66.6,52.0,29.86,ENE,67,0.0,13.3,59,0.00,,BKN,0.00,WUHU21623XXSP,2013-03-20 13:13:00,
2013-03-20 15:18:00,66.6,51.5,29.86,SW,225,10.1,13.3,58,0.00,,BKN,0.00,WUHU21623XXSP,2013-03-20 13:18:00,
2013-03-20 15:23:00,66.4,51.3,29.86,South,180,8.4,12.8,58,0.00,,BKN,0.00,WUHU21623XXSP,2013-03-20 13:23:00,
2013-03-20 15:28:00,65.8,50.8,29.87,SE,135,2.0,12.8,58,0.00,,BKN,0.00,WUHU21623XXSP,2013-03-20 13:28:00,
2013-03-20 15:33:00,65.7,50.7,29.87,SW,225,0.0,12.3,58,0.00,,BKN,0.00,WUHU21623XXSP,2013-03-20 13:33:00,
2013-03-20 15:39:00,65.3,50.8,29.86,SSW,202,5.2,15.7,59,0.00,,BKN,0.00,WUHU21623XXSP,2013-03-20 13:39:00,
2013-03-20 15:43:00,64.9,50.4,29.87,SW,225,3.7,15.7,59,0.00,,BKN,0.00,WUHU21623XXSP,2013-03-20 13:43:00,
2013-03-20 15:49:00,64.9,50.4,29.87,WNW,292,0.0,11.6,59,0.00,,BKN,0.00,WUHU21623XXSP,2013-03-20 13:49:00,
2013-03-20 15:54:00,65.1,51.0,29.87,NW,315,0.0,11.6,60,0.00,,BKN,0.00,WUHU21623XXSP,2013-03-20 13:54:00,
2013-03-20 15:59:00,65.3,50.8,29.87,WSW,247,2.2,7.6,59,0.00,,BKN,0.00,WUHU21623XXSP,2013-03-20 13:59:00,
2013-03-20 16:04:00,65.8,50.3,29.87,SW,225,4.9,11.3,57,0.00,,BKN,0.00,WUHU21623XXSP,2013-03-20 14:04:00,
2013-03-20 16:09:00,66.2,49.7,29.87,SW,225,12.1,12.1,55,0.00,,BKN,0.00,WUHU21623XXSP,2013-03-20 14:09:00,
2013-03-20 16:14:00,66.6,50.0,29.87,NNE,22,0.0,12.1,55,0.00,,BKN,0.00,WUHU21623XXSP,2013-03-20 14:14:00,
2013-03-20 16:19:00,66.4,49.9,29.87,South,180,7.6,11.1,55,0.00,,BKN,0.00,WUHU21623XXSP,2013-03-20 14:19:00,
2013-03-20 16:24:00,66.4,49.3,29.86,SW,225,0.0,7.9,54,0.00,,BKN,0.00,WUHU21623XXSP,2013-03-20 14:24:00,
2013-03-20 16:29:00,66.4,48.3,29.87,WSW,247,0.0,12.3,52,0.00,,BKN,0.00,WUHU21623XXSP,2013-03-20 14:29:00,
2013-03-20 16:34:00,66.2,48.1,29.87,SSW,202,2.8,12.3,52,0.00,,BKN,0.00,WUHU21623XXSP,2013-03-20 14:34:00,
2013-03-20 16:39:00,66.4,48.3,29.86,NW,315,0.0,10.8,52,0.00,,BKN,0.00,WUHU21623XXSP,2013-03-20 14:39:00,
2013-03-20 16:44:00,66.6,48.5,29.86,South,180,0.0,7.2,52,0.00,,BKN,0.00,WUHU21623XXSP,2013-03-20 14:44:00,
2013-03-20 16:49:00,66.4,47.8,29.87,ESE,112,1.4,10.8,51,0.00,,BKN,0.00,WUHU21623XXSP,2013-03-20 14:49:00,
2013-03-20 16:54:00,66.4,48.3,29.86,South,180,0.0,12.1,52,0.00,,BKN,0.00,WUHU21623XXSP,2013-03-20 14:54:00,
2013-03-20 16:59:00,66.2,48.1,29.86,SW,225,0.0,12.1,52,0.00,,BKN,0.00,WUHU21623XXSP,2013-03-20 14:59:00,
2013-03-20 17:04:00,65.8,47.8,29.86,SSW,202,4.0,9.8,52,0.00,,BKN,0.00,WUHU21623XXSP,2013-03-20 15:04:00,
2013-03-20 17:09:00,65.8,47.2,29.87,SW,225,6.6,9.8,51,0.00,,BKN,0.00,WUHU21623XXSP,2013-03-20 15:09:00,
2013-03-20 17:14:00,65.7,47.1,29.87,WNW,292,1.8,8.6,51,0.00,,BKN,0.00,WUHU21623XXSP,2013-03-20 15:14:00,
2013-03-20 17:19:00,65.5,46.4,29.87,WNW,292,0.0,8.6,50,0.00,,BKN,0.00,WUHU21623XXSP,2013-03-20 15:19:00,
2013-03-20 17:24:00,65.5,45.8,29.86,SSW,202,0.0,6.4,49,0.00,,BKN,0.00,WUHU21623XXSP,2013-03-20 15:24:00,
2013-03-20 17:29:00,65.5,45.8,29.86,SW,225,0.0,5.2,49,0.00,,BKN,0.00,WUHU21623XXSP,2013-03-20 15:29:00,
2013-03-20 17:34:00,65.3,45.1,29.86,SE,135,0.0,7.2,48,0.00,,BKN,0.00,WUHU21623XXSP,2013-03-20 15:34:00,
2013-03-20 17:39:00,65.5,46.4,29.86,SW,225,0.0,7.2,50,0.00,,BKN,0.00,WUHU21623XXSP,2013-03-20 15:39:00,
2013-03-20 17:44:00,65.3,45.1,29.86,SE,135,1.8,8.4,48,0.00,,BKN,0.00,WUHU21623XXSP,2013-03-20 15:44:00,
2013-03-20 17:49:00,65.3,44.5,29.86,WNW,292,0.0,9.6,47,0.00,,BKN,0.00,WUHU21623XXSP,2013-03-20 15:49:00,
2013-03-20 17:54:00,65.3,45.7,29.86,ENE,67,0.0,9.6,49,0.00,,BKN,0.00,WUHU21623XXSP,2013-03-20 15:54:00,
2013-03-20 17:59:00,65.1,46.6,29.86,West,270,0.0,7.4,51,0.00,,BKN,0.00,WUHU21623XXSP,2013-03-20 15:59:00,
2013-03-20 18:04:00,64.9,46.9,29.86,WSW,247,0.0,7.4,52,0.00,,BKN,0.00,WUHU21623XXSP,2013-03-20 16:04:00,
2013-03-20 18:09:00,64.8,47.3,29.86,NNW,337,0.0,6.2,53,0.00,,BKN,0.00,WUHU21623XXSP,2013-03-20 16:09:00,
2013-03-20 18:14:00,64.6,47.7,29.86,SSW,202,0.0,0.8,54,0.00,,BKN,0.00,WUHU21623XXSP,2013-03-20 16:14:00,
2013-03-20 18:19:00,64.2,47.8,29.86,SSW,202,2.8,4.2,55,0.00,,BKN,0.00,WUHU21623XXSP,2013-03-20 16:19:00,
2013-03-20 18:24:00,64.0,48.1,29.86,SW,225,0.0,4.2,56,0.00,,BKN,0.00,WUHU21623XXSP,2013-03-20 16:24:00,
2013-03-20 18:29:00,64.0,47.6,29.86,NW,315,0.0,4.9,55,0.00,,BKN,0.00,WUHU21623XXSP,2013-03-20 16:29:00,
2013-03-20 18:34:00,64.0,47.6,29.86,NW,315,0.0,7.4,55,0.00,,BKN,0.00,WUHU21623XXSP,2013-03-20 16:34:00,
2013-03-20 18:39:00,63.9,48.0,29.86,SW,225,0.0,7.4,56,0.00,,BKN,0.00,WUHU21623XXSP,2013-03-20 16:39:00,
2013-03-20 18:44:00,63.5,47.6,29.86,NE,45,0.0,0.0,56,0.00,,BKN,0.00,WUHU21623XXSP,2013-03-20 16:44:00,
2013-03-20 18:49:00,63.3,47.9,29.86,NE,45,0.0,0.0,57,0.00,,BKN,0.00,WUHU21623XXSP,2013-03-20 16:49:00,
2013-03-20 18:54:00,63.0,48.1,29.86,NE,45,0.0,0.0,58,0.00,,BKN,0.00,WUHU21623XXSP,2013-03-20 16:54:00,
2013-03-20 18:59:00,63.0,48.1,29.86,NW,315,0.0,0.0,58,0.00,,BKN,0.00,WUHU21623XXSP,2013-03-20 16:59:00,
2013-03-20 19:04:00,62.8,47.9,29.86,North,0,0.0,0.0,58,0.00,,BKN,0.00,WUHU21623XXSP,2013-03-20 17:04:00,
2013-03-20 19:09:00,62.4,47.6,29.86,North,0,0.0,0.0,58,0.00,,BKN,0.00,WUHU21623XXSP,2013-03-20 17:09:00,
2013-03-20 19:14:00,62.4,48.0,29.86,North,0,0.0,0.0,59,0.00,,BKN,0.00,WUHU21623XXSP,2013-03-20 17:14:00,
2013-03-20 19:19:00,62.2,47.8,29.86,NNW,337,0.0,0.0,59,0.00,,BKN,0.00,WUHU21623XXSP,2013-03-20 17:19:00,
2013-03-20 19:24:00,62.2,47.8,29.86,WSW,247,0.0,0.0,59,0.00,,BKN,0.00,WUHU21623XXSP,2013-03-20 17:24:00,
2013-03-20 19:29:00,62.2,47.8,29.86,NE,45,0.0,0.0,59,0.00,,BKN,0.00,WUHU21623XXSP,2013-03-20 17:29:00,
2013-03-20 19:34:00,62.1,47.7,29.86,North,0,0.0,0.0,59,0.00,,BKN,0.00,WUHU21623XXSP,2013-03-20 17:34:00,
2013-03-20 19:39:00,62.1,47.7,29.86,NNE,22,0.0,1.8,59,0.00,,BKN,0.00,WUHU21623XXSP,2013-03-20 17:39:00,
2013-03-20 19:44:00,61.9,47.5,29.86,North,0,1.2,2.4,59,0.00,,BKN,0.00,WUHU21623XXSP,2013-03-20 17:44:00,
2013-03-20 19:49:00,62.1,47.7,29.86,NW,315,0.0,2.4,59,0.00,,BKN,0.00,WUHU21623XXSP,2013-03-20 17:49:00,
2013-03-20 19:54:00,61.9,47.5,29.86,NNE,22,0.0,1.4,59,0.00,,BKN,0.00,WUHU21623XXSP,2013-03-20 17:54:00,
2013-03-20 19:59:00,61.7,47.4,29.86,NNW,337,0.0,2.2,59,0.00,,BKN,0.00,WUHU21623XXSP,2013-03-20 17:59:00,
2013-03-20 20:04:00,61.7,47.4,29.85,NE,45,1.0,2.8,59,0.00,,BKN,0.00,WUHU21623XXSP,2013-03-20 18:04:00,
2013-03-20 20:09:00,61.7,47.4,29.85,NNE,22,0.0,4.9,59,0.00,,BKN,0.00,WUHU21623XXSP,2013-03-20 18:09:00,
2013-03-20 20:14:00,61.7,47.4,29.85,NNE,22,0.0,4.9,59,0.00,,BKN,0.00,WUHU21623XXSP,2013-03-20 18:14:00,
2013-03-20 20:19:00,61.7,47.4,29.85,North,0,0.0,4.2,59,0.00,,BKN,0.00,WUHU21623XXSP,2013-03-20 18:19:00,
2013-03-20 20:24:00,61.7,47.4,29.85,North,0,1.4,3.2,59,0.00,,BKN,0.00,WUHU21623XXSP,2013-03-20 18:24:00,
2013-03-20 20:29:00,61.7,47.4,29.85,NNW,337,2.0,4.0,59,0.00,,BKN,0.00,WUHU21623XXSP,2013-03-20 18:29:00,
2013-03-20 20:34:00,61.7,47.4,29.85,North,0,0.0,4.0,59,0.00,,BKN,0.00,WUHU21623XXSP,2013-03-20 18:34:00,
2013-03-20 20:39:00,61.7,47.4,29.85,North,0,0.0,2.8,59,0.00,,BKN,0.00,WUHU21623XXSP,2013-03-20 18:39:00,
2013-03-20 20:44:00,61.7,47.4,29.85,North,0,1.4,2.2,59,0.00,,BKN,0.00,WUHU21623XXSP,2013-03-20 18:44:00,
2013-03-20 20:49:00,61.5,47.6,29.85,North,0,1.8,2.8,60,0.00,,BKN,0.00,WUHU21623XXSP,2013-03-20 18:49:00,
2013-03-20 20:54:00,61.5,47.6,29.85,NNE,22,1.0,3.0,60,0.00,,BKN,0.00,WUHU21623XXSP,2013-03-20 18:54:00,
2013-03-20 20:59:00,61.3,47.4,29.85,North,0,0.0,3.0,60,0.00,,BKN,0.00,WUHU21623XXSP,2013-03-20 18:59:00,
2013-03-20 21:04:00,61.2,47.3,29.85,NNW,337,0.0,3.0,60,0.00,,BKN,0.00,WUHU21623XXSP,2013-03-20 19:04:00,
2013-03-20 21:09:00,61.3,47.4,29.85,North,0,0.0,3.0,60,0.00,,BKN,0.00,WUHU21623XXSP,2013-03-20 19:09:00,
2013-03-20 21:14:00,61.2,47.3,29.86,North,0,0.0,3.2,60,0.00,,BKN,0.00,WUHU21623XXSP,2013-03-20 19:14:00,
2013-03-20 21:19:00,61.2,47.8,29.86,SW,225,0.0,3.2,61,0.00,,BKN,0.00,WUHU21623XXSP,2013-03-20 19:19:00,
2013-03-20 21:24:00,61.0,47.6,29.85,WSW,247,0.0,1.0,61,0.00,,BKN,0.00,WUHU21623XXSP,2013-03-20 19:24:00,
2013-03-20 21:29:00,61.0,47.6,29.85,NNW,337,0.0,0.0,61,0.00,,BKN,0.00,WUHU21623XXSP,2013-03-20 19:29:00,
2013-03-20 21:34:00,61.0,47.6,29.85,NNW,337,0.0,0.0,61,0.00,,BKN,0.00,WUHU21623XXSP,2013-03-20 19:34:00,
2013-03-20 21:39:00,61.0,47.6,29.85,North,0,0.0,0.0,61,0.00,,BKN,0.00,WUHU21623XXSP,2013-03-20 19:39:00,
2013-03-20 21:44:00,60.8,47.4,29.85,WNW,292,0.0,0.0,61,0.00,,BKN,0.00,WUHU21623XXSP,2013-03-20 19:44:00,
2013-03-20 21:49:00,60.8,47.4,29.85,North,0,0.0,1.2,61,0.00,,BKN,0.00,WUHU21623XXSP,2013-03-20 19:49:00,
2013-03-20 21:54:00,60.6,47.2,29.85,NNW,337,0.0,1.2,61,0.00,,BKN,0.00,WUHU21623XXSP,2013-03-20 19:54:00,
2013-03-20 21:59:00,60.8,47.8,29.85,West,270,0.0,1.2,62,0.00,,BKN,0.00,WUHU21623XXSP,2013-03-20 19:59:00,
2013-03-20 22:04:00,60.6,47.7,29.84,North,0,0.0,2.4,62,0.00,,BKN,0.00,WUHU21623XXSP,2013-03-20 20:04:00,
2013-03-20 22:09:00,60.4,47.5,29.84,North,0,0.0,2.4,62,0.00,,BKN,0.00,WUHU21623XXSP,2013-03-20 20:09:00,
2013-03-20 22:14:00,60.4,47.9,29.84,North,0,0.0,1.8,63,0.00,,BKN,0.00,WUHU21623XXSP,2013-03-20 20:14:00,
2013-03-20 22:19:00,60.4,47.9,29.84,NW,315,0.0,0.0,63,0.00,,BKN,0.00,WUHU21623XXSP,2013-03-20 20:19:00,
2013-03-20 22:24:00,60.4,47.9,29.84,NNW,337,0.0,2.4,63,0.00,,BKN,0.00,WUHU21623XXSP,2013-03-20 20:24:00,
2013-03-20 22:29:00,60.4,48.3,29.84,NNW,337,0.0,2.4,64,0.00,,BKN,0.00,WUHU21623XXSP,2013-03-20 20:29:00,
2013-03-20 22:34:00,60.4,48.3,29.84,NNW,337,0.0,1.2,64,0.00,,BKN,0.00,WUHU21623XXSP,2013-03-20 20:34:00,
2013-03-20 22:40:00,60.3,48.2,29.84,NNW,337,0.0,0.0,64,0.00,,BKN,0.00,WUHU21623XXSP,2013-03-20 20:40:00,
2013-03-20 22:45:00,60.3,48.2,29.84,NW,315,0.0,0.0,64,0.00,,BKN,0.00,WUHU21623XXSP,2013-03-20 20:45:00,
2013-03-20 22:50:00,60.3,48.2,29.84,North,0,0.0,1.4,64,0.00,,BKN,0.00,WUHU21623XXSP,2013-03-20 20:50:00,
2013-03-20 22:55:00,60.3,48.2,29.84,North,0,0.0,2.8,64,0.00,,BKN,0.00,WUHU21623XXSP,2013-03-20 20:55:00,
2013-03-20 23:12:00,60.3,48.6,29.83,North,0,0.0,0.0,65,0.00,,BKN,0.00,WUHU21623XXSP,2013-03-20 21:12:00,
2013-03-20 23:17:00,60.3,48.6,29.83,WSW,247,0.0,1.8,65,0.00,,BKN,0.00,WUHU21623XXSP,2013-03-20 21:17:00,
2013-03-20 23:22:00,60.3,49.0,29.83,South,180,0.0,1.8,66,0.00,,BKN,0.00,WUHU21623XXSP,2013-03-20 21:22:00,
2013-03-20 23:26:00,60.1,48.8,29.83,West,270,0.0,0.0,66,0.00,,BKN,0.00,WUHU21623XXSP,2013-03-20 21:26:00,